sensor_id;sensor_type;location;lat;lon;timestamp;temperature;humidity
23271;DHT22;11804;51.118;17.058;2023-03-14T00:00:18;10.80;91.90
23271;DHT22;11804;51.118;17.058;2023-03-14T00:02:45;10.70;92.00
23271;DHT22;11804;51.118;17.058;2023-03-14T00:05:13;10.60;92.40
23271;DHT22;11804;51.118;17.058;2023-03-14T00:07:41;10.60;92.50
23271;DHT22;11804;51.118;17.058;2023-03-14T00:10:11;10.60;92.60
23271;DHT22;11804;51.118;17.058;2023-03-14T00:12:41;10.60;92.80
23271;DHT22;11804;51.118;17.058;2023-03-14T00:15:09;10.60;93.30
23271;DHT22;11804;51.118;17.058;2023-03-14T00:17:37;10.60;93.40
23271;DHT22;11804;51.118;17.058;2023-03-14T00:20:07;10.60;93.40
23271;DHT22;11804;51.118;17.058;2023-03-14T00:22:36;10.60;93.60
23271;DHT22;11804;51.118;17.058;2023-03-14T00:25:06;10.60;93.60
23271;DHT22;11804;51.118;17.058;2023-03-14T00:27:34;10.70;93.20
23271;DHT22;11804;51.118;17.058;2023-03-14T00:30:03;10.70;93.10
23271;DHT22;11804;51.118;17.058;2023-03-14T00:32:31;10.70;93.00
23271;DHT22;11804;51.118;17.058;2023-03-14T00:34:59;10.70;92.90
23271;DHT22;11804;51.118;17.058;2023-03-14T00:37:29;10.80;93.10
23271;DHT22;11804;51.118;17.058;2023-03-14T00:39:56;10.70;93.10
23271;DHT22;11804;51.118;17.058;2023-03-14T00:42:25;10.70;93.40
23271;DHT22;11804;51.118;17.058;2023-03-14T00:44:52;10.70;93.40
23271;DHT22;11804;51.118;17.058;2023-03-14T00:47:20;10.70;93.50
23271;DHT22;11804;51.118;17.058;2023-03-14T00:49:48;10.70;93.90
23271;DHT22;11804;51.118;17.058;2023-03-14T00:52:16;10.70;93.90
23271;DHT22;11804;51.118;17.058;2023-03-14T00:54:43;10.70;94.20
23271;DHT22;11804;51.118;17.058;2023-03-14T00:57:11;10.70;94.60
23271;DHT22;11804;51.118;17.058;2023-03-14T00:59:38;10.70;94.90
23271;DHT22;11804;51.118;17.058;2023-03-14T01:02:06;10.60;95.10
23271;DHT22;11804;51.118;17.058;2023-03-14T01:04:36;10.60;94.80
23271;DHT22;11804;51.118;17.058;2023-03-14T01:07:04;10.70;94.30
23271;DHT22;11804;51.118;17.058;2023-03-14T01:09:31;10.80;94.10
23271;DHT22;11804;51.118;17.058;2023-03-14T01:11:59;10.80;93.50
23271;DHT22;11804;51.118;17.058;2023-03-14T01:14:27;10.80;93.60
23271;DHT22;11804;51.118;17.058;2023-03-14T01:16:54;10.90;93.20
23271;DHT22;11804;51.118;17.058;2023-03-14T01:19:23;10.90;93.10
23271;DHT22;11804;51.118;17.058;2023-03-14T01:21:51;10.90;93.00
23271;DHT22;11804;51.118;17.058;2023-03-14T01:24:21;11.00;93.50
23271;DHT22;11804;51.118;17.058;2023-03-14T01:26:49;10.90;93.40
23271;DHT22;11804;51.118;17.058;2023-03-14T01:29:16;11.00;93.10
23271;DHT22;11804;51.118;17.058;2023-03-14T01:31:44;11.00;93.00
23271;DHT22;11804;51.118;17.058;2023-03-14T01:34:12;11.00;92.40
23271;DHT22;11804;51.118;17.058;2023-03-14T01:36:39;11.10;92.90
23271;DHT22;11804;51.118;17.058;2023-03-14T01:39:07;11.10;93.70
23271;DHT22;11804;51.118;17.058;2023-03-14T01:41:36;11.10;94.60
23271;DHT22;11804;51.118;17.058;2023-03-14T01:44:04;11.00;95.30
23271;DHT22;11804;51.118;17.058;2023-03-14T01:46:40;10.90;95.60
23271;DHT22;11804;51.118;17.058;2023-03-14T01:49:26;11.00;95.40
23271;DHT22;11804;51.118;17.058;2023-03-14T01:54:47;10.90;95.80
23271;DHT22;11804;51.118;17.058;2023-03-14T01:57:20;10.90;97.20
23271;DHT22;11804;51.118;17.058;2023-03-14T01:59:58;10.90;98.20
23271;DHT22;11804;51.118;17.058;2023-03-14T02:02:24;10.90;98.40
23271;DHT22;11804;51.118;17.058;2023-03-14T02:04:54;10.90;98.50
23271;DHT22;11804;51.118;17.058;2023-03-14T02:10:09;10.90;99.20
23271;DHT22;11804;51.118;17.058;2023-03-14T02:12:39;10.80;99.00
23271;DHT22;11804;51.118;17.058;2023-03-14T02:15:08;10.80;99.90
23271;DHT22;11804;51.118;17.058;2023-03-14T02:17:36;10.70;99.90
23271;DHT22;11804;51.118;17.058;2023-03-14T02:20:15;10.70;99.90
23271;DHT22;11804;51.118;17.058;2023-03-14T02:22:44;10.70;99.90
23271;DHT22;11804;51.118;17.058;2023-03-14T02:25:46;10.70;99.90
23271;DHT22;11804;51.118;17.058;2023-03-14T02:28:13;10.60;99.90
23271;DHT22;11804;51.118;17.058;2023-03-14T02:30:41;10.70;99.90
23271;DHT22;11804;51.118;17.058;2023-03-14T02:33:17;10.60;99.90
23271;DHT22;11804;51.118;17.058;2023-03-14T02:35:50;10.60;99.90
23271;DHT22;11804;51.118;17.058;2023-03-14T02:38:26;10.60;99.90
23271;DHT22;11804;51.118;17.058;2023-03-14T02:40:53;10.60;99.90
23271;DHT22;11804;51.118;17.058;2023-03-14T02:43:21;10.60;99.90
23271;DHT22;11804;51.118;17.058;2023-03-14T02:45:50;10.60;99.30
23271;DHT22;11804;51.118;17.058;2023-03-14T02:48:41;10.70;98.30
23271;DHT22;11804;51.118;17.058;2023-03-14T02:50:56;10.80;97.40
23271;DHT22;11804;51.118;17.058;2023-03-14T02:53:27;10.80;96.50
23271;DHT22;11804;51.118;17.058;2023-03-14T02:55:56;10.90;95.30
23271;DHT22;11804;51.118;17.058;2023-03-14T02:58:24;10.90;94.60
23271;DHT22;11804;51.118;17.058;2023-03-14T03:00:52;10.90;94.40
23271;DHT22;11804;51.118;17.058;2023-03-14T03:03:20;10.90;94.30
23271;DHT22;11804;51.118;17.058;2023-03-14T03:05:49;10.90;94.40
23271;DHT22;11804;51.118;17.058;2023-03-14T03:08:19;10.80;94.80
23271;DHT22;11804;51.118;17.058;2023-03-14T03:10:47;10.80;95.10
23271;DHT22;11804;51.118;17.058;2023-03-14T03:13:15;10.80;95.30
23271;DHT22;11804;51.118;17.058;2023-03-14T03:15:43;10.70;95.30
23271;DHT22;11804;51.118;17.058;2023-03-14T03:18:11;10.80;94.90
23271;DHT22;11804;51.118;17.058;2023-03-14T03:20:39;10.90;94.00
23271;DHT22;11804;51.118;17.058;2023-03-14T03:23:07;11.00;93.80
23271;DHT22;11804;51.118;17.058;2023-03-14T03:25:34;11.00;93.60
23271;DHT22;11804;51.118;17.058;2023-03-14T03:28:02;11.00;93.50
23271;DHT22;11804;51.118;17.058;2023-03-14T03:30:32;11.10;93.40
23271;DHT22;11804;51.118;17.058;2023-03-14T03:32:59;11.10;92.80
23271;DHT22;11804;51.118;17.058;2023-03-14T03:35:27;11.10;92.90
23271;DHT22;11804;51.118;17.058;2023-03-14T03:37:55;11.10;92.90
23271;DHT22;11804;51.118;17.058;2023-03-14T03:40:22;11.10;93.20
23271;DHT22;11804;51.118;17.058;2023-03-14T03:42:50;11.00;93.80
23271;DHT22;11804;51.118;17.058;2023-03-14T03:45:18;10.90;94.20
23271;DHT22;11804;51.118;17.058;2023-03-14T03:47:46;10.90;94.50
23271;DHT22;11804;51.118;17.058;2023-03-14T03:50:13;10.90;94.30
23271;DHT22;11804;51.118;17.058;2023-03-14T03:52:41;10.90;94.20
23271;DHT22;11804;51.118;17.058;2023-03-14T03:55:09;10.90;94.40
23271;DHT22;11804;51.118;17.058;2023-03-14T03:57:37;10.80;94.40
23271;DHT22;11804;51.118;17.058;2023-03-14T04:00:06;10.90;94.30
23271;DHT22;11804;51.118;17.058;2023-03-14T04:02:35;10.80;94.60
23271;DHT22;11804;51.118;17.058;2023-03-14T04:05:03;10.80;94.80
23271;DHT22;11804;51.118;17.058;2023-03-14T04:07:32;10.80;94.40
23271;DHT22;11804;51.118;17.058;2023-03-14T04:10:00;10.80;94.30
23271;DHT22;11804;51.118;17.058;2023-03-14T04:12:27;10.90;94.20
23271;DHT22;11804;51.118;17.058;2023-03-14T04:14:55;10.80;94.20
23271;DHT22;11804;51.118;17.058;2023-03-14T04:17:22;10.90;94.30
23271;DHT22;11804;51.118;17.058;2023-03-14T04:19:50;11.00;93.50
23271;DHT22;11804;51.118;17.058;2023-03-14T04:22:20;11.00;93.30
23271;DHT22;11804;51.118;17.058;2023-03-14T04:24:47;11.00;93.30
23271;DHT22;11804;51.118;17.058;2023-03-14T04:27:15;11.00;93.30
23271;DHT22;11804;51.118;17.058;2023-03-14T04:29:43;11.00;93.20
23271;DHT22;11804;51.118;17.058;2023-03-14T04:32:10;11.00;93.10
23271;DHT22;11804;51.118;17.058;2023-03-14T04:34:38;11.10;93.70
23271;DHT22;11804;51.118;17.058;2023-03-14T04:37:05;11.10;93.70
23271;DHT22;11804;51.118;17.058;2023-03-14T04:39:33;11.10;94.00
23271;DHT22;11804;51.118;17.058;2023-03-14T04:42:01;11.00;94.10
23271;DHT22;11804;51.118;17.058;2023-03-14T04:44:28;11.00;94.00
23271;DHT22;11804;51.118;17.058;2023-03-14T04:46:56;11.00;93.70
23271;DHT22;11804;51.118;17.058;2023-03-14T04:49:24;11.10;93.70
23271;DHT22;11804;51.118;17.058;2023-03-14T04:51:52;11.10;93.70
23271;DHT22;11804;51.118;17.058;2023-03-14T04:54:19;11.10;93.70
23271;DHT22;11804;51.118;17.058;2023-03-14T04:56:47;11.00;93.60
23271;DHT22;11804;51.118;17.058;2023-03-14T04:59:15;11.10;93.50
23271;DHT22;11804;51.118;17.058;2023-03-14T05:01:42;11.00;93.40
23271;DHT22;11804;51.118;17.058;2023-03-14T05:04:10;11.00;93.10
23271;DHT22;11804;51.118;17.058;2023-03-14T05:06:38;11.00;93.10
23271;DHT22;11804;51.118;17.058;2023-03-14T05:09:08;11.10;92.80
23271;DHT22;11804;51.118;17.058;2023-03-14T05:11:35;11.10;92.60
23271;DHT22;11804;51.118;17.058;2023-03-14T05:14:03;11.10;93.00
23271;DHT22;11804;51.118;17.058;2023-03-14T05:16:30;11.10;93.70
23271;DHT22;11804;51.118;17.058;2023-03-14T05:18:58;11.10;94.20
23271;DHT22;11804;51.118;17.058;2023-03-14T05:21:27;11.00;94.50
23271;DHT22;11804;51.118;17.058;2023-03-14T05:23:55;11.00;95.80
23271;DHT22;11804;51.118;17.058;2023-03-14T05:26:23;10.90;97.90
23271;DHT22;11804;51.118;17.058;2023-03-14T05:28:51;10.80;99.40
23271;DHT22;11804;51.118;17.058;2023-03-14T05:31:19;10.80;99.10
23271;DHT22;11804;51.118;17.058;2023-03-14T05:33:47;10.80;99.90
23271;DHT22;11804;51.118;17.058;2023-03-14T05:36:14;10.70;99.90
23271;DHT22;11804;51.118;17.058;2023-03-14T05:38:42;10.60;99.90
23271;DHT22;11804;51.118;17.058;2023-03-14T05:41:10;10.50;99.90
23271;DHT22;11804;51.118;17.058;2023-03-14T05:43:37;10.40;99.90
23271;DHT22;11804;51.118;17.058;2023-03-14T05:46:06;10.50;99.90
23271;DHT22;11804;51.118;17.058;2023-03-14T05:48:33;10.40;99.90
23271;DHT22;11804;51.118;17.058;2023-03-14T05:51:01;10.40;99.90
23271;DHT22;11804;51.118;17.058;2023-03-14T05:53:29;10.40;99.90
23271;DHT22;11804;51.118;17.058;2023-03-14T05:55:57;10.40;99.90
23271;DHT22;11804;51.118;17.058;2023-03-14T05:58:24;10.40;99.90
23271;DHT22;11804;51.118;17.058;2023-03-14T06:00:52;10.50;99.90
23271;DHT22;11804;51.118;17.058;2023-03-14T06:03:20;10.50;99.90
23271;DHT22;11804;51.118;17.058;2023-03-14T06:05:49;10.50;99.90
23271;DHT22;11804;51.118;17.058;2023-03-14T06:08:17;10.50;99.90
23271;DHT22;11804;51.118;17.058;2023-03-14T06:10:45;10.50;99.90
23271;DHT22;11804;51.118;17.058;2023-03-14T06:13:13;10.50;99.90
23271;DHT22;11804;51.118;17.058;2023-03-14T06:15:42;10.60;99.90
23271;DHT22;11804;51.118;17.058;2023-03-14T06:18:10;10.60;99.90
23271;DHT22;11804;51.118;17.058;2023-03-14T06:20:39;10.60;99.90
23271;DHT22;11804;51.118;17.058;2023-03-14T06:23:07;10.70;99.90
23271;DHT22;11804;51.118;17.058;2023-03-14T06:25:36;10.80;99.90
23271;DHT22;11804;51.118;17.058;2023-03-14T06:28:04;10.90;99.90
23271;DHT22;11804;51.118;17.058;2023-03-14T06:30:31;11.10;99.90
23271;DHT22;11804;51.118;17.058;2023-03-14T06:32:59;11.30;99.90
23271;DHT22;11804;51.118;17.058;2023-03-14T06:35:26;11.40;99.90
23271;DHT22;11804;51.118;17.058;2023-03-14T06:37:54;11.50;99.90
23271;DHT22;11804;51.118;17.058;2023-03-14T06:40:22;11.50;99.30
23271;DHT22;11804;51.118;17.058;2023-03-14T06:42:50;11.50;98.30
23271;DHT22;11804;51.118;17.058;2023-03-14T06:45:18;11.50;97.90
23271;DHT22;11804;51.118;17.058;2023-03-14T06:47:45;11.40;99.20
23271;DHT22;11804;51.118;17.058;2023-03-14T06:50:13;11.40;99.40
23271;DHT22;11804;51.118;17.058;2023-03-14T06:52:40;11.40;99.00
23271;DHT22;11804;51.118;17.058;2023-03-14T06:55:10;11.40;99.40
23271;DHT22;11804;51.118;17.058;2023-03-14T06:57:38;11.30;99.60
23271;DHT22;11804;51.118;17.058;2023-03-14T07:00:07;11.30;99.90
23271;DHT22;11804;51.118;17.058;2023-03-14T07:02:34;11.30;99.10
23271;DHT22;11804;51.118;17.058;2023-03-14T07:05:02;11.30;99.20
23271;DHT22;11804;51.118;17.058;2023-03-14T07:07:31;11.30;99.30
23271;DHT22;11804;51.118;17.058;2023-03-14T07:09:58;11.30;99.80
23271;DHT22;11804;51.118;17.058;2023-03-14T07:12:27;11.30;99.90
23271;DHT22;11804;51.118;17.058;2023-03-14T07:14:55;11.20;99.70
23271;DHT22;11804;51.118;17.058;2023-03-14T07:17:23;11.30;99.60
23271;DHT22;11804;51.118;17.058;2023-03-14T07:19:50;11.30;99.10
23271;DHT22;11804;51.118;17.058;2023-03-14T07:22:18;11.20;99.10
23271;DHT22;11804;51.118;17.058;2023-03-14T07:24:45;11.20;99.70
23271;DHT22;11804;51.118;17.058;2023-03-14T07:27:13;11.20;99.60
23271;DHT22;11804;51.118;17.058;2023-03-14T07:29:41;11.20;99.50
23271;DHT22;11804;51.118;17.058;2023-03-14T07:32:08;11.20;99.70
23271;DHT22;11804;51.118;17.058;2023-03-14T07:34:36;11.10;99.20
23271;DHT22;11804;51.118;17.058;2023-03-14T07:37:03;11.20;99.40
23271;DHT22;11804;51.118;17.058;2023-03-14T07:39:31;11.10;99.30
23271;DHT22;11804;51.118;17.058;2023-03-14T07:41:59;11.10;98.60
23271;DHT22;11804;51.118;17.058;2023-03-14T07:44:26;11.10;98.90
23271;DHT22;11804;51.118;17.058;2023-03-14T07:46:54;11.10;98.40
23271;DHT22;11804;51.118;17.058;2023-03-14T07:49:22;11.10;98.50
23271;DHT22;11804;51.118;17.058;2023-03-14T07:51:51;11.10;98.00
23271;DHT22;11804;51.118;17.058;2023-03-14T07:54:18;11.10;97.60
23271;DHT22;11804;51.118;17.058;2023-03-14T07:56:46;11.10;97.30
23271;DHT22;11804;51.118;17.058;2023-03-14T07:59:14;11.10;97.20
23271;DHT22;11804;51.118;17.058;2023-03-14T08:01:41;11.10;97.90
23271;DHT22;11804;51.118;17.058;2023-03-14T08:04:09;11.10;98.50
23271;DHT22;11804;51.118;17.058;2023-03-14T08:06:37;11.00;98.60
23271;DHT22;11804;51.118;17.058;2023-03-14T08:09:05;11.00;98.80
23271;DHT22;11804;51.118;17.058;2023-03-14T08:11:32;11.00;99.00
23271;DHT22;11804;51.118;17.058;2023-03-14T08:14:00;10.90;99.10
23271;DHT22;11804;51.118;17.058;2023-03-14T08:16:28;10.90;99.40
23271;DHT22;11804;51.118;17.058;2023-03-14T08:18:55;10.90;99.50
23271;DHT22;11804;51.118;17.058;2023-03-14T08:21:24;10.90;99.90
23271;DHT22;11804;51.118;17.058;2023-03-14T08:23:51;10.90;99.90
23271;DHT22;11804;51.118;17.058;2023-03-14T08:26:19;10.80;99.90
23271;DHT22;11804;51.118;17.058;2023-03-14T08:28:46;10.90;99.90
23271;DHT22;11804;51.118;17.058;2023-03-14T08:31:14;10.90;99.90
23271;DHT22;11804;51.118;17.058;2023-03-14T08:33:42;10.80;99.90
23271;DHT22;11804;51.118;17.058;2023-03-14T08:36:10;10.80;99.90
23271;DHT22;11804;51.118;17.058;2023-03-14T08:38:38;10.80;99.90
23271;DHT22;11804;51.118;17.058;2023-03-14T08:41:06;10.80;99.90
23271;DHT22;11804;51.118;17.058;2023-03-14T08:43:34;10.80;99.90
23271;DHT22;11804;51.118;17.058;2023-03-14T08:46:02;10.80;99.90
23271;DHT22;11804;51.118;17.058;2023-03-14T08:48:30;10.70;99.90
23271;DHT22;11804;51.118;17.058;2023-03-14T08:51:06;10.70;99.90
23271;DHT22;11804;51.118;17.058;2023-03-14T08:53:34;10.70;99.90
23271;DHT22;11804;51.118;17.058;2023-03-14T08:56:01;10.70;99.90
23271;DHT22;11804;51.118;17.058;2023-03-14T08:58:30;10.70;99.90
23271;DHT22;11804;51.118;17.058;2023-03-14T09:00:58;10.70;99.90
23271;DHT22;11804;51.118;17.058;2023-03-14T09:03:26;10.80;99.90
23271;DHT22;11804;51.118;17.058;2023-03-14T09:05:53;10.90;99.90
23271;DHT22;11804;51.118;17.058;2023-03-14T09:08:21;11.10;99.90
23271;DHT22;11804;51.118;17.058;2023-03-14T09:10:48;11.30;99.90
23271;DHT22;11804;51.118;17.058;2023-03-14T09:13:16;11.30;99.90
23271;DHT22;11804;51.118;17.058;2023-03-14T09:15:44;11.30;99.90
23271;DHT22;11804;51.118;17.058;2023-03-14T09:18:11;11.30;99.90
23271;DHT22;11804;51.118;17.058;2023-03-14T09:20:40;11.30;99.90
23271;DHT22;11804;51.118;17.058;2023-03-14T09:23:08;11.30;99.90
23271;DHT22;11804;51.118;17.058;2023-03-14T09:25:36;11.30;99.90
23271;DHT22;11804;51.118;17.058;2023-03-14T09:28:04;11.40;99.90
23271;DHT22;11804;51.118;17.058;2023-03-14T09:30:31;11.40;99.90
23271;DHT22;11804;51.118;17.058;2023-03-14T09:32:59;11.50;99.90
23271;DHT22;11804;51.118;17.058;2023-03-14T09:35:27;11.50;99.90
23271;DHT22;11804;51.118;17.058;2023-03-14T09:37:55;11.40;99.90
23271;DHT22;11804;51.118;17.058;2023-03-14T09:40:22;11.40;99.90
23271;DHT22;11804;51.118;17.058;2023-03-14T09:42:51;11.30;99.90
23271;DHT22;11804;51.118;17.058;2023-03-14T09:45:26;11.30;99.90
23271;DHT22;11804;51.118;17.058;2023-03-14T09:47:56;11.30;99.90
23271;DHT22;11804;51.118;17.058;2023-03-14T09:50:26;11.20;99.90
23271;DHT22;11804;51.118;17.058;2023-03-14T09:53:02;11.20;99.90
23271;DHT22;11804;51.118;17.058;2023-03-14T09:55:31;11.20;99.90
23271;DHT22;11804;51.118;17.058;2023-03-14T09:58:02;11.20;99.90
23271;DHT22;11804;51.118;17.058;2023-03-14T10:00:30;11.20;99.90
23271;DHT22;11804;51.118;17.058;2023-03-14T10:05:41;11.20;99.90
23271;DHT22;11804;51.118;17.058;2023-03-14T10:08:11;11.20;99.90
23271;DHT22;11804;51.118;17.058;2023-03-14T10:10:39;11.30;99.90
23271;DHT22;11804;51.118;17.058;2023-03-14T10:13:18;11.30;99.90
23271;DHT22;11804;51.118;17.058;2023-03-14T10:15:58;11.40;99.90
23271;DHT22;11804;51.118;17.058;2023-03-14T10:18:24;11.50;99.90
23271;DHT22;11804;51.118;17.058;2023-03-14T10:21:06;11.60;99.90
23271;DHT22;11804;51.118;17.058;2023-03-14T10:23:32;11.70;99.90
23271;DHT22;11804;51.118;17.058;2023-03-14T10:26:06;11.80;99.90
23271;DHT22;11804;51.118;17.058;2023-03-14T10:28:45;11.90;99.90
23271;DHT22;11804;51.118;17.058;2023-03-14T10:31:14;12.00;99.90
23271;DHT22;11804;51.118;17.058;2023-03-14T10:33:42;12.10;99.90
23271;DHT22;11804;51.118;17.058;2023-03-14T10:36:21;12.20;99.90
23271;DHT22;11804;51.118;17.058;2023-03-14T10:38:49;12.20;99.90
23271;DHT22;11804;51.118;17.058;2023-03-14T10:41:25;12.10;99.90
23271;DHT22;11804;51.118;17.058;2023-03-14T10:44:00;12.20;99.90
23271;DHT22;11804;51.118;17.058;2023-03-14T10:46:25;12.20;99.90
23271;DHT22;11804;51.118;17.058;2023-03-14T10:48:54;12.20;99.90
23271;DHT22;11804;51.118;17.058;2023-03-14T10:51:27;12.30;99.90
23271;DHT22;11804;51.118;17.058;2023-03-14T10:56:34;12.50;99.90
23271;DHT22;11804;51.118;17.058;2023-03-14T10:59:06;12.50;99.90
23271;DHT22;11804;51.118;17.058;2023-03-14T11:04:31;12.80;99.90
23271;DHT22;11804;51.118;17.058;2023-03-14T11:09:49;13.30;98.40
23271;DHT22;11804;51.118;17.058;2023-03-14T11:15:02;13.50;97.50
23271;DHT22;11804;51.118;17.058;2023-03-14T11:20:31;13.50;97.80
23271;DHT22;11804;51.118;17.058;2023-03-14T11:25:32;13.30;98.50
23271;DHT22;11804;51.118;17.058;2023-03-14T11:30:55;13.50;97.40
23271;DHT22;11804;51.118;17.058;2023-03-14T11:33:31;13.60;96.10
23271;DHT22;11804;51.118;17.058;2023-03-14T11:36:03;13.90;95.30
23271;DHT22;11804;51.118;17.058;2023-03-14T11:38:48;14.00;95.40
23271;DHT22;11804;51.118;17.058;2023-03-14T11:41:31;14.00;95.10
23271;DHT22;11804;51.118;17.058;2023-03-14T11:44:02;13.90;95.10
23271;DHT22;11804;51.118;17.058;2023-03-14T11:46:35;13.70;95.50
23271;DHT22;11804;51.118;17.058;2023-03-14T11:52:08;13.50;95.60
23271;DHT22;11804;51.118;17.058;2023-03-14T11:54:55;13.40;95.60
23271;DHT22;11804;51.118;17.058;2023-03-14T11:57:23;13.40;96.00
23271;DHT22;11804;51.118;17.058;2023-03-14T12:00:00;13.60;95.40
23271;DHT22;11804;51.118;17.058;2023-03-14T12:10:59;14.00;92.30
23271;DHT22;11804;51.118;17.058;2023-03-14T12:13:36;13.90;92.70
23271;DHT22;11804;51.118;17.058;2023-03-14T12:18:54;13.80;94.30
23271;DHT22;11804;51.118;17.058;2023-03-14T12:21:24;13.60;95.10
23271;DHT22;11804;51.118;17.058;2023-03-14T12:23:57;13.40;96.00
23271;DHT22;11804;51.118;17.058;2023-03-14T12:26:27;13.40;96.90
23271;DHT22;11804;51.118;17.058;2023-03-14T12:39:31;13.20;98.60
23271;DHT22;11804;51.118;17.058;2023-03-14T12:44:52;13.20;99.10
23271;DHT22;11804;51.118;17.058;2023-03-14T12:49:53;13.20;99.30
23271;DHT22;11804;51.118;17.058;2023-03-14T12:52:36;13.20;98.60
23271;DHT22;11804;51.118;17.058;2023-03-14T12:55:13;13.10;98.70
23271;DHT22;11804;51.118;17.058;2023-03-14T13:00:37;13.20;98.20
23271;DHT22;11804;51.118;17.058;2023-03-14T13:03:18;13.20;98.70
23271;DHT22;11804;51.118;17.058;2023-03-14T13:06:00;13.20;99.00
23271;DHT22;11804;51.118;17.058;2023-03-14T13:11:20;13.20;99.90
23271;DHT22;11804;51.118;17.058;2023-03-14T13:13:57;13.00;99.90
23271;DHT22;11804;51.118;17.058;2023-03-14T13:16:25;13.00;99.90
23271;DHT22;11804;51.118;17.058;2023-03-14T13:19:03;12.90;99.90
23271;DHT22;11804;51.118;17.058;2023-03-14T13:21:36;12.80;99.90
23271;DHT22;11804;51.118;17.058;2023-03-14T13:24:20;12.80;99.90
23271;DHT22;11804;51.118;17.058;2023-03-14T13:26:43;12.80;99.90
23271;DHT22;11804;51.118;17.058;2023-03-14T13:31:50;12.80;99.90
23271;DHT22;11804;51.118;17.058;2023-03-14T13:34:19;12.70;99.90
23271;DHT22;11804;51.118;17.058;2023-03-14T13:36:51;12.80;99.90
23271;DHT22;11804;51.118;17.058;2023-03-14T13:39:21;12.80;99.90
23271;DHT22;11804;51.118;17.058;2023-03-14T13:41:51;12.80;99.90
23271;DHT22;11804;51.118;17.058;2023-03-14T13:44:31;12.90;99.90
23271;DHT22;11804;51.118;17.058;2023-03-14T13:47:02;12.90;99.90
23271;DHT22;11804;51.118;17.058;2023-03-14T13:49:32;13.00;99.90
23271;DHT22;11804;51.118;17.058;2023-03-14T13:52:04;12.90;99.90
23271;DHT22;11804;51.118;17.058;2023-03-14T13:54:32;12.90;99.90
23271;DHT22;11804;51.118;17.058;2023-03-14T13:57:02;12.80;99.90
23271;DHT22;11804;51.118;17.058;2023-03-14T13:59:32;12.70;99.90
23271;DHT22;11804;51.118;17.058;2023-03-14T14:02:09;12.70;99.90
23271;DHT22;11804;51.118;17.058;2023-03-14T14:04:32;12.70;99.90
23271;DHT22;11804;51.118;17.058;2023-03-14T14:07:17;12.70;99.90
23271;DHT22;11804;51.118;17.058;2023-03-14T14:09:50;12.70;99.90
23271;DHT22;11804;51.118;17.058;2023-03-14T14:12:26;12.80;99.90
23271;DHT22;11804;51.118;17.058;2023-03-14T14:15:00;12.70;99.90
23271;DHT22;11804;51.118;17.058;2023-03-14T14:17:28;12.80;99.90
23271;DHT22;11804;51.118;17.058;2023-03-14T14:19:55;12.70;99.90
23271;DHT22;11804;51.118;17.058;2023-03-14T14:22:24;12.70;99.90
23271;DHT22;11804;51.118;17.058;2023-03-14T14:24:53;12.60;99.90
23271;DHT22;11804;51.118;17.058;2023-03-14T14:27:29;12.60;99.90
23271;DHT22;11804;51.118;17.058;2023-03-14T14:30:01;12.60;99.90
23271;DHT22;11804;51.118;17.058;2023-03-14T14:32:39;12.70;99.90
23271;DHT22;11804;51.118;17.058;2023-03-14T14:35:10;12.70;99.90
23271;DHT22;11804;51.118;17.058;2023-03-14T14:37:44;12.70;99.90
23271;DHT22;11804;51.118;17.058;2023-03-14T14:40:24;12.70;99.90
23271;DHT22;11804;51.118;17.058;2023-03-14T14:43:06;12.70;99.90
23271;DHT22;11804;51.118;17.058;2023-03-14T14:45:35;12.70;99.90
23271;DHT22;11804;51.118;17.058;2023-03-14T14:48:10;12.70;99.90
23271;DHT22;11804;51.118;17.058;2023-03-14T14:50:39;12.70;99.90
23271;DHT22;11804;51.118;17.058;2023-03-14T14:53:29;12.70;99.90
23271;DHT22;11804;51.118;17.058;2023-03-14T14:55:59;12.70;99.90
23271;DHT22;11804;51.118;17.058;2023-03-14T14:58:36;12.70;99.90
23271;DHT22;11804;51.118;17.058;2023-03-14T15:01:16;12.80;99.90
23271;DHT22;11804;51.118;17.058;2023-03-14T15:03:46;12.80;99.90
23271;DHT22;11804;51.118;17.058;2023-03-14T15:06:16;12.80;99.90
23271;DHT22;11804;51.118;17.058;2023-03-14T15:08:45;12.90;99.90
23271;DHT22;11804;51.118;17.058;2023-03-14T15:11:18;13.00;99.90
23271;DHT22;11804;51.118;17.058;2023-03-14T15:13:47;13.10;99.90
23271;DHT22;11804;51.118;17.058;2023-03-14T15:16:17;13.20;99.90
23271;DHT22;11804;51.118;17.058;2023-03-14T15:18:48;13.40;99.90
23271;DHT22;11804;51.118;17.058;2023-03-14T15:21:15;13.50;99.90
23271;DHT22;11804;51.118;17.058;2023-03-14T15:23:43;13.60;99.90
23271;DHT22;11804;51.118;17.058;2023-03-14T15:26:17;13.70;99.90
23271;DHT22;11804;51.118;17.058;2023-03-14T15:28:44;13.80;98.60
23271;DHT22;11804;51.118;17.058;2023-03-14T15:31:16;13.90;98.60
23271;DHT22;11804;51.118;17.058;2023-03-14T15:33:45;13.90;97.80
23271;DHT22;11804;51.118;17.058;2023-03-14T15:36:34;13.90;97.50
23271;DHT22;11804;51.118;17.058;2023-03-14T15:38:47;13.80;97.30
23271;DHT22;11804;51.118;17.058;2023-03-14T15:41:14;13.70;97.30
23271;DHT22;11804;51.118;17.058;2023-03-14T15:43:42;13.60;98.20
23271;DHT22;11804;51.118;17.058;2023-03-14T15:46:10;13.50;98.60
23271;DHT22;11804;51.118;17.058;2023-03-14T15:48:38;13.30;99.60
23271;DHT22;11804;51.118;17.058;2023-03-14T15:51:06;13.30;99.90
23271;DHT22;11804;51.118;17.058;2023-03-14T15:53:34;13.20;99.90
23271;DHT22;11804;51.118;17.058;2023-03-14T15:56:05;13.20;99.90
23271;DHT22;11804;51.118;17.058;2023-03-14T15:58:33;13.30;99.90
23271;DHT22;11804;51.118;17.058;2023-03-14T16:01:01;13.20;99.20
23271;DHT22;11804;51.118;17.058;2023-03-14T16:03:30;13.10;99.60
23271;DHT22;11804;51.118;17.058;2023-03-14T16:05:57;13.10;99.80
23271;DHT22;11804;51.118;17.058;2023-03-14T16:08:27;13.10;99.90
23271;DHT22;11804;51.118;17.058;2023-03-14T16:10:58;13.10;99.90
23271;DHT22;11804;51.118;17.058;2023-03-14T16:13:26;13.10;99.90
23271;DHT22;11804;51.118;17.058;2023-03-14T16:16:00;13.10;99.30
23271;DHT22;11804;51.118;17.058;2023-03-14T16:18:31;13.00;99.20
23271;DHT22;11804;51.118;17.058;2023-03-14T16:21:01;13.00;97.70
23271;DHT22;11804;51.118;17.058;2023-03-14T16:23:31;13.00;96.50
23271;DHT22;11804;51.118;17.058;2023-03-14T16:26:06;13.00;96.30
23271;DHT22;11804;51.118;17.058;2023-03-14T16:28:33;13.00;96.30
23271;DHT22;11804;51.118;17.058;2023-03-14T16:31:03;13.00;96.40
23271;DHT22;11804;51.118;17.058;2023-03-14T16:33:32;13.00;96.20
23271;DHT22;11804;51.118;17.058;2023-03-14T16:36:02;12.90;96.30